createdAt,value
2019-01-19T00:05:19.241Z,101396.49
2019-01-19T00:10:30.533Z,101385.73
2019-01-19T00:15:41.020Z,101381.39
2019-01-19T00:20:59.244Z,101387.66
2019-01-19T00:26:17.604Z,101388.20
2019-01-19T00:31:35.914Z,101391.51
2019-01-19T00:36:45.452Z,101391.16
2019-01-19T00:42:07.571Z,101383.55
2019-01-19T00:47:26.399Z,101385.78
2019-01-19T00:52:44.158Z,101380.23
2019-01-19T00:58:09.680Z,101377.98
2019-01-19T01:03:23.566Z,101385.61
2019-01-19T01:08:42.422Z,101379.64
2019-01-19T01:14:07.749Z,101380.56
2019-01-19T01:19:20.687Z,101387.12
2019-01-19T01:24:43.679Z,101387.74
2019-01-19T01:30:20.707Z,101383.88
2019-01-19T01:35:47.681Z,101390.86
2019-01-19T01:41:02.464Z,101391.17
2019-01-19T01:46:12.800Z,101392.55
2019-01-19T01:51:28.786Z,101386.40
2019-01-19T01:56:36.032Z,101393.67
2019-01-19T02:01:46.486Z,101392.27
2019-01-19T02:06:57.732Z,101389.58
2019-01-19T02:12:32.317Z,101385.83
2019-01-19T02:17:49.612Z,101387.95
2019-01-19T02:23:07.109Z,101382.02
2019-01-19T02:28:27.642Z,101378.38
2019-01-19T02:33:38.644Z,101377.50
2019-01-19T02:38:49.037Z,101379.34
2019-01-19T02:44:17.849Z,101375.54
2019-01-19T02:49:33.979Z,101376.50
2019-01-19T02:54:55.349Z,101385.58
2019-01-19T03:00:25.618Z,101385.53
2019-01-19T03:05:36.522Z,101372.55
2019-01-19T03:11:06.826Z,101374.22
2019-01-19T03:16:28.548Z,101374.53
2019-01-19T03:21:46.709Z,101371.81
2019-01-19T03:26:56.900Z,101372.24
2019-01-19T03:32:10.347Z,101384.76
2019-01-19T03:37:40.006Z,101378.60
2019-01-19T03:42:53.534Z,101369.48
2019-01-19T03:48:08.954Z,101368.55
2019-01-19T03:53:24.956Z,101373.52
2019-01-19T03:58:51.560Z,101374.00
2019-01-19T04:04:18.217Z,101374.00
2019-01-19T04:09:27.750Z,101370.61
2019-01-19T04:15:02.345Z,101375.16
2019-01-19T04:20:22.066Z,101372.33
2019-01-19T04:25:34.675Z,101379.47
2019-01-19T04:30:42.659Z,101379.13
2019-01-19T04:35:51.372Z,101382.34
2019-01-19T04:41:00.648Z,101371.24
2019-01-19T04:46:09.690Z,101372.28
2019-01-19T04:51:18.123Z,101377.95
2019-01-19T04:56:28.014Z,101379.95
2019-01-19T05:01:40.815Z,101381.64
2019-01-19T05:06:48.047Z,101373.30
2019-01-19T05:11:55.870Z,101368.23
2019-01-19T05:17:03.954Z,101372.78
2019-01-19T05:22:12.447Z,101362.93
2019-01-19T05:27:20.364Z,101358.41
2019-01-19T05:32:30.072Z,101369.05
2019-01-19T05:37:38.970Z,101371.54
2019-01-19T05:42:55.953Z,101367.08
2019-01-19T05:48:01.841Z,101371.98
2019-01-19T05:53:10.490Z,101369.91
2019-01-19T05:58:20.294Z,101366.80
2019-01-19T06:03:31.124Z,101374.02
2019-01-19T06:08:39.629Z,101378.41
2019-01-19T06:13:46.667Z,101373.90
2019-01-19T06:18:53.185Z,101383.41
2019-01-19T06:23:59.582Z,101382.55
2019-01-19T06:29:07.565Z,101382.44
2019-01-19T06:34:15.185Z,101381.56
2019-01-19T06:39:22.254Z,101382.72
2019-01-19T06:44:28.913Z,101385.66
2019-01-19T06:49:35.452Z,101391.15
2019-01-19T06:54:43.323Z,101394.02
2019-01-19T06:59:51.253Z,101395.13
2019-01-19T07:05:00.510Z,101396.09
2019-01-19T07:10:11.180Z,101408.65
2019-01-19T07:15:20.398Z,101402.43
2019-01-19T07:20:31.170Z,101401.19
2019-01-19T07:25:41.330Z,101407.42
2019-01-19T07:30:48.776Z,101406.53
2019-01-19T07:35:57.057Z,101409.45
2019-01-19T07:41:05.210Z,101416.27
2019-01-19T07:46:13.219Z,101416.72
2019-01-19T07:51:21.873Z,101425.67
2019-01-19T07:56:30.127Z,101425.56
2019-01-19T08:01:41.868Z,101436.97
2019-01-19T08:06:49.325Z,101439.23
2019-01-19T08:11:57.503Z,101442.95
2019-01-19T08:17:09.488Z,101440.34
2019-01-19T08:22:17.681Z,101440.98
2019-01-19T08:27:27.136Z,101442.12
2019-01-19T08:32:35.741Z,101446.27
2019-01-19T08:37:43.815Z,101452.75
2019-01-19T08:42:52.871Z,101449.15
2019-01-19T08:48:01.470Z,101457.39
2019-01-19T08:53:09.356Z,101448.02
2019-01-19T08:58:17.369Z,101468.17
2019-01-19T09:03:34.571Z,101459.55
2019-01-19T09:08:51.491Z,101454.72
2019-01-19T09:14:00.959Z,101455.62
2019-01-19T09:19:08.860Z,101457.16
2019-01-19T09:24:18.172Z,101456.47
2019-01-19T09:29:26.583Z,101450.53
2019-01-19T09:34:36.553Z,101453.64
2019-01-19T09:39:44.851Z,101457.64
2019-01-19T09:44:53.039Z,101447.55
2019-01-19T09:50:01.468Z,101455.08
2019-01-19T09:55:11.448Z,101449.09
2019-01-19T10:00:22.112Z,101446.42
2019-01-19T10:05:29.956Z,101448.08
2019-01-19T10:10:37.314Z,101446.25
2019-01-19T10:15:45.559Z,101452.35
2019-01-19T10:20:53.161Z,101455.82
2019-01-19T10:26:01.540Z,101452.52
2019-01-19T10:31:09.880Z,101446.27
2019-01-19T10:36:21.490Z,101447.36
2019-01-19T10:41:31.340Z,101437.66
2019-01-19T10:46:42.750Z,101437.36
2019-01-19T10:51:59.341Z,101431.95
2019-01-19T10:57:06.693Z,101435.44
2019-01-19T11:02:13.909Z,101429.84
2019-01-19T11:07:22.480Z,101429.16
2019-01-19T11:12:30.944Z,101418.94
2019-01-19T11:17:39.072Z,101416.06
2019-01-19T11:22:49.455Z,101409.91
2019-01-19T11:27:57.078Z,101404.72
2019-01-19T11:33:04.232Z,101403.81
2019-01-19T11:38:19.897Z,101405.42
2019-01-19T11:43:21.458Z,101392.30
2019-01-19T11:48:29.594Z,101386.92
2019-01-19T11:53:37.001Z,101376.97
2019-01-19T11:58:43.452Z,101381.31
2019-01-19T12:03:52.948Z,101370.62
2019-01-19T12:09:00.779Z,101365.40
2019-01-19T12:14:09.176Z,101364.16
2019-01-19T12:19:16.208Z,101357.05
2019-01-19T12:24:22.790Z,101359.30
2019-01-19T12:29:36.730Z,101366.33
2019-01-19T12:34:44.536Z,101356.97
2019-01-19T12:39:52.866Z,101345.52
2019-01-19T12:45:00.821Z,101349.02
2019-01-19T12:50:11.581Z,101340.38
2019-01-19T12:55:22.474Z,101344.12
2019-01-19T13:00:30.699Z,101340.73
2019-01-19T13:05:45.732Z,101338.11
2019-01-19T13:11:05.215Z,101336.67
2019-01-19T13:16:48.431Z,101335.10
2019-01-19T13:22:03.453Z,101331.05
2019-01-19T13:27:16.927Z,101324.43
2019-01-19T13:32:55.046Z,101326.98
2019-01-19T13:38:12.618Z,101321.64
2019-01-19T13:43:54.663Z,101316.06
2019-01-19T13:49:08.998Z,101316.13
2019-01-19T13:54:33.816Z,101313.76
2019-01-19T13:59:53.975Z,101312.56
2019-01-19T14:05:11.676Z,101311.06
2019-01-19T14:10:41.856Z,101313.77
2019-01-19T14:15:53.945Z,101303.86
2019-01-19T14:21:31.257Z,101303.17
2019-01-19T14:26:57.970Z,101297.23
2019-01-19T14:32:25.262Z,101298.89
2019-01-19T14:38:04.869Z,101297.38
2019-01-19T14:43:34.466Z,101292.06
2019-01-19T14:49:01.078Z,101296.28
2019-01-19T14:54:42.244Z,101292.20
2019-01-19T15:00:13.314Z,101288.45
2019-01-19T15:05:31.809Z,101288.63
2019-01-19T15:10:53.220Z,101293.63
2019-01-19T15:16:04.206Z,101291.59
2019-01-19T15:21:19.800Z,101285.71
2019-01-19T15:26:40.830Z,101291.80
2019-01-19T15:31:55.249Z,101291.99
2019-01-19T15:37:14.245Z,101287.91
2019-01-19T15:42:35.258Z,101291.25
2019-01-19T15:47:44.641Z,101284.23
2019-01-19T15:53:15.548Z,101280.58
2019-01-19T15:58:43.881Z,101277.50
2019-01-19T16:03:55.609Z,101280.84
2019-01-19T16:09:07.459Z,101271.44
2019-01-19T16:14:42.115Z,101275.95
2019-01-19T16:20:03.255Z,101270.55
2019-01-19T16:25:27.319Z,101270.47
2019-01-19T16:31:02.472Z,101266.98
2019-01-19T16:36:28.112Z,101271.46
2019-01-19T16:41:49.976Z,101273.29
2019-01-19T16:47:21.264Z,101270.80
2019-01-19T16:52:48.925Z,101266.56
2019-01-19T16:58:03.821Z,101263.88
2019-01-19T17:03:24.877Z,101267.62
2019-01-19T17:08:40.326Z,101265.27
2019-01-19T17:13:58.029Z,101264.19
2019-01-19T17:19:28.662Z,101257.21
2019-01-19T17:25:02.260Z,101251.70
2019-01-19T17:30:14.300Z,101257.56
2019-01-19T17:35:39.742Z,101259.48
2019-01-19T17:41:04.808Z,101261.51
2019-01-19T17:46:17.201Z,101262.61
2019-01-19T17:51:42.549Z,101261.70
2019-01-19T17:56:57.337Z,101264.53
2019-01-19T18:02:16.565Z,101265.59
2019-01-19T18:07:42.434Z,101262.99
2019-01-19T18:12:52.140Z,101264.95
2019-01-19T18:18:11.077Z,101266.00
2019-01-19T18:23:45.041Z,101260.84
2019-01-19T18:29:09.400Z,101263.46
2019-01-19T18:34:32.425Z,101264.12
2019-01-19T18:39:54.836Z,101265.30
2019-01-19T18:45:04.696Z,101264.65
2019-01-19T18:50:18.430Z,101266.56
2019-01-19T18:55:36.342Z,101262.20
2019-01-19T19:00:50.833Z,101257.80
2019-01-19T19:06:21.358Z,101254.92
2019-01-19T19:11:35.744Z,101254.42
2019-01-19T19:17:00.427Z,101250.02
2019-01-19T19:22:29.637Z,101260.81
2019-01-19T19:27:48.000Z,101247.03
2019-01-19T19:33:08.877Z,101249.27
2019-01-19T19:38:41.353Z,101247.95
2019-01-19T19:44:08.019Z,101249.66
2019-01-19T19:49:26.060Z,101242.41
2019-01-19T19:54:33.152Z,101247.22
2019-01-19T19:59:39.146Z,101247.22
2019-01-19T20:04:45.239Z,101251.25
2019-01-19T20:09:51.196Z,101242.94
2019-01-19T20:14:59.548Z,101240.08
2019-01-19T20:20:09.208Z,101237.22
2019-01-19T20:25:15.235Z,101240.73
2019-01-19T20:30:21.556Z,101237.87
2019-01-19T20:35:27.449Z,101241.80
2019-01-19T20:40:33.333Z,101242.55
2019-01-19T20:45:39.468Z,101241.26
2019-01-19T20:50:45.853Z,101247.36
2019-01-19T20:55:52.039Z,101244.62
2019-01-19T21:00:58.285Z,101235.69
2019-01-19T21:06:05.253Z,101247.09
2019-01-19T21:11:13.434Z,101244.77
2019-01-19T21:16:19.463Z,101243.09
2019-01-19T21:21:25.850Z,101244.12
2019-01-19T21:26:32.369Z,101243.08
2019-01-19T21:31:38.153Z,101238.66
2019-01-19T21:36:44.785Z,101237.88
2019-01-19T21:41:50.715Z,101237.98
2019-01-19T21:46:57.629Z,101232.14
2019-01-19T21:52:04.151Z,101229.06
2019-01-19T21:57:10.436Z,101232.95
2019-01-19T22:02:16.471Z,101234.87
2019-01-19T22:07:22.619Z,101233.05
2019-01-19T22:12:28.723Z,101229.42
2019-01-19T22:17:39.450Z,101224.86
2019-01-19T22:22:42.397Z,101224.11
2019-01-19T22:27:49.102Z,101225.67
2019-01-19T22:32:55.752Z,101219.95
2019-01-19T22:38:01.553Z,101219.31
2019-01-19T22:43:07.871Z,101216.45
2019-01-19T22:48:13.665Z,101212.17
2019-01-19T22:53:21.037Z,101213.45
2019-01-19T22:58:27.507Z,101217.09
2019-01-19T23:03:34.052Z,101215.78
2019-01-19T23:08:42.017Z,101213.17
2019-01-19T23:13:48.835Z,101209.04
2019-01-19T23:18:55.087Z,101214.46
2019-01-19T23:24:01.527Z,101199.67
2019-01-19T23:29:07.098Z,101197.61
2019-01-19T23:34:12.734Z,101204.09
2019-01-19T23:39:19.571Z,101196.55
2019-01-19T23:44:25.473Z,101192.92
2019-01-19T23:49:32.437Z,101197.09
2019-01-19T23:54:39.513Z,101191.91
2019-01-19T23:59:47.314Z,101185.41
